Time;durP1;ratioP1;P1;durP2;ratioP2;P2;SDS_P1;SDS_P2;PMS_P1;PMS_P2;Temp;Humidity;BMP_temperature;BMP_pressure;BME280_temperature;BME280_humidity;BME280_pressure;Samples;Min_cycle;Max_cycle;Signal;HPM_P1;HPM_P2
2022/07/25 00:00:30;;;;;;;3.67;3.38;;;13.20;99.90;;;;;;5049858;28;20028;-72
2022/07/25 00:02:56;;;;;;;3.50;3.20;;;13.10;99.90;;;;;;5050047;28;20390;-71
2022/07/25 00:05:22;;;;;;;3.42;3.10;;;13.00;99.90;;;;;;5049825;28;20053;-71
2022/07/25 00:07:48;;;;;;;4.43;3.33;;;13.00;99.90;;;;;;5049950;28;20075;-78
2022/07/25 00:10:14;;;;;;;3.55;3.15;;;13.00;99.90;;;;;;5049758;28;20021;-71
2022/07/25 00:12:40;;;;;;;3.05;2.75;;;13.00;99.90;;;;;;5049791;28;20037;-71
2022/07/25 00:15:07;;;;;;;5.80;2.90;;;13.10;99.90;;;;;;5049717;28;20036;-72
2022/07/25 00:17:33;;;;;;;3.70;3.10;;;13.00;99.90;;;;;;5049812;28;20016;-71
2022/07/25 00:19:59;;;;;;;3.08;2.88;;;13.00;99.90;;;;;;5049621;28;20078;-78
2022/07/25 00:22:24;;;;;;;3.00;2.80;;;13.00;99.90;;;;;;5049484;28;20053;-71
2022/07/25 00:24:50;;;;;;;2.80;2.60;;;13.00;99.90;;;;;;5049621;28;20029;-72
2022/07/25 00:27:15;;;;;;;4.10;2.72;;;13.00;99.90;;;;;;5049673;28;20546;-70
2022/07/25 00:29:41;;;;;;;3.97;2.78;;;13.00;99.90;;;;;;5049688;28;20133;-77
2022/07/25 00:32:07;;;;;;;5.07;2.58;;;12.90;99.90;;;;;;5049502;28;20029;-70
2022/07/25 00:34:32;;;;;;;3.67;2.58;;;12.90;99.90;;;;;;5049612;28;20474;-71
2022/07/25 00:36:58;;;;;;;3.25;2.40;;;12.90;99.90;;;;;;5049404;28;20367;-77
2022/07/25 00:39:24;;;;;;;5.63;3.15;;;12.90;99.90;;;;;;5049565;28;20470;-77
2022/07/25 00:41:49;;;;;;;2.72;2.53;;;12.90;99.90;;;;;;5048193;28;20028;-71
2022/07/25 00:44:41;;;;;;;3.13;2.47;;;12.90;99.90;;;;;;5048179;28;20474;-72
2022/07/25 00:47:07;;;;;;;3.55;3.00;;;12.90;99.90;;;;;;5050694;27;20101;-71
2022/07/25 00:49:33;;;;;;;3.83;3.00;;;12.90;99.90;;;;;;5052875;28;20017;-71
2022/07/25 00:51:59;;;;;;;3.33;3.03;;;12.90;99.90;;;;;;5052876;28;20478;-71
2022/07/25 00:54:25;;;;;;;3.00;2.80;;;12.80;99.90;;;;;;5052669;28;20021;-78
2022/07/25 00:56:51;;;;;;;3.22;2.60;;;12.80;99.90;;;;;;5051408;28;20524;-71
2022/07/25 00:59:17;;;;;;;3.17;2.83;;;12.80;99.90;;;;;;5052830;28;20053;-71
2022/07/25 01:01:44;;;;;;;5.93;2.63;;;12.80;99.90;;;;;;5052759;28;20485;-71
2022/07/25 01:04:10;;;;;;;3.47;3.17;;;12.70;99.90;;;;;;5052659;28;20073;-71
2022/07/25 01:06:36;;;;;;;2.58;2.38;;;12.70;99.90;;;;;;5052458;28;20493;-72
2022/07/25 01:09:02;;;;;;;2.53;2.30;;;12.60;99.90;;;;;;5051436;28;20020;-77
2022/07/25 01:11:28;;;;;;;2.47;2.28;;;12.60;99.90;;;;;;5052466;28;20073;-77
2022/07/25 01:13:53;;;;;;;3.10;2.80;;;12.60;99.90;;;;;;5052449;28;20029;-71
2022/07/25 01:16:19;;;;;;;4.80;2.60;;;12.60;99.90;;;;;;5052271;28;20434;-71
2022/07/25 01:18:45;;;;;;;2.70;2.50;;;12.50;99.90;;;;;;5052535;28;20017;-78
2022/07/25 01:21:11;;;;;;;2.97;2.67;;;12.40;99.90;;;;;;5050975;28;20032;-71
2022/07/25 01:23:37;;;;;;;4.20;3.20;;;12.50;99.90;;;;;;5052266;28;20364;-77
2022/07/25 01:26:02;;;;;;;3.15;2.78;;;12.40;99.90;;;;;;5052094;28;20032;-76
2022/07/25 01:28:28;;;;;;;3.03;2.83;;;12.50;99.90;;;;;;5052287;28;20104;-77
2022/07/25 01:30:54;;;;;;;3.03;2.72;;;12.50;99.90;;;;;;5052169;27;20025;-71
2022/07/25 01:33:21;;;;;;;3.67;3.05;;;12.50;99.90;;;;;;5052022;28;20104;-72
2022/07/25 01:35:48;;;;;;;3.90;2.63;;;12.40;99.90;;;;;;5052106;28;20056;-77
2022/07/25 01:38:15;;;;;;;3.03;2.83;;;12.40;99.90;;;;;;5052092;28;20020;-76
2022/07/25 01:40:41;;;;;;;3.33;2.75;;;12.30;99.90;;;;;;5052239;28;20033;-71
2022/07/25 01:43:07;;;;;;;3.15;2.53;;;12.40;99.90;;;;;;5052021;28;20021;-76
2022/07/25 01:45:33;;;;;;;3.15;2.80;;;12.40;99.90;;;;;;5052001;28;20032;-72
2022/07/25 01:47:59;;;;;;;3.08;2.80;;;12.30;99.90;;;;;;5051946;28;20041;-76
2022/07/25 01:50:24;;;;;;;3.22;2.92;;;12.40;99.90;;;;;;5051867;28;20029;-76
2022/07/25 01:52:50;;;;;;;3.63;2.90;;;12.30;99.90;;;;;;5051720;28;20051;-77
2022/07/25 01:55:16;;;;;;;3.50;2.90;;;12.40;99.90;;;;;;5051804;28;20017;-77
2022/07/25 01:57:42;;;;;;;4.13;3.10;;;12.30;99.90;;;;;;5051594;28;20029;-71
2022/07/25 02:00:10;;;;;;;2.70;2.50;;;12.30;99.90;;;;;;5050507;28;20033;-77
2022/07/25 02:02:36;;;;;;;4.50;3.17;;;12.30;99.90;;;;;;5051657;28;20021;-71
2022/07/25 02:05:02;;;;;;;5.10;2.83;;;12.20;99.90;;;;;;5051744;28;20065;-71
2022/07/25 02:07:28;;;;;;;2.58;2.38;;;12.20;99.90;;;;;;5051498;28;20032;-76
2022/07/25 02:09:53;;;;;;;2.83;2.60;;;12.20;99.90;;;;;;5051758;28;20021;-72
2022/07/25 02:12:19;;;;;;;2.90;2.60;;;12.20;99.90;;;;;;5051374;28;20103;-76
2022/07/25 02:14:45;;;;;;;3.00;2.80;;;12.10;99.90;;;;;;5051633;28;20025;-76
2022/07/25 02:17:10;;;;;;;3.90;3.13;;;12.10;99.90;;;;;;5051518;28;20029;-71
2022/07/25 02:19:36;;;;;;;3.45;3.13;;;12.10;99.90;;;;;;5050236;28;20021;-76
2022/07/25 02:22:02;;;;;;;3.55;3.00;;;12.10;99.90;;;;;;5049985;28;20057;-71
2022/07/25 02:24:28;;;;;;;2.95;2.60;;;12.10;99.90;;;;;;5051303;28;20538;-77
2022/07/25 02:26:54;;;;;;;2.78;2.58;;;12.10;99.90;;;;;;5051162;28;20517;-76
2022/07/25 02:29:20;;;;;;;2.28;2.17;;;12.00;99.90;;;;;;5051351;28;20031;-71
2022/07/25 02:31:45;;;;;;;3.20;2.90;;;12.00;99.90;;;;;;5051193;28;20494;-71
2022/07/25 02:34:11;;;;;;;5.88;2.92;;;11.90;99.90;;;;;;5051127;28;20470;-77
2022/07/25 02:36:37;;;;;;;4.00;2.50;;;11.80;99.90;;;;;;5051154;28;20439;-76
2022/07/25 02:39:03;;;;;;;4.18;2.63;;;11.80;99.90;;;;;;5051015;28;20025;-76
2022/07/25 02:41:28;;;;;;;6.13;3.17;;;11.80;99.90;;;;;;5051195;28;20033;-71
2022/07/25 02:43:54;;;;;;;3.22;2.80;;;11.80;99.90;;;;;;5051041;28;20099;-77
2022/07/25 02:46:20;;;;;;;2.80;2.60;;;11.80;99.90;;;;;;5050822;28;20101;-77
2022/07/25 02:48:46;;;;;;;3.17;2.50;;;11.80;99.90;;;;;;5050890;28;20027;-77
2022/07/25 02:51:12;;;;;;;3.40;3.10;;;11.80;99.90;;;;;;5051063;28;20058;-77
2022/07/25 02:53:37;;;;;;;2.95;2.75;;;11.80;99.90;;;;;;5049556;28;20028;-76
2022/07/25 02:56:03;;;;;;;4.85;3.25;;;11.80;99.90;;;;;;5050821;28;20032;-71
2022/07/25 02:58:29;;;;;;;5.38;2.78;;;11.80;99.90;;;;;;5049541;28;20031;-71
2022/07/25 03:00:54;;;;;;;8.90;3.72;;;11.90;99.90;;;;;;5050884;28;20028;-71
2022/07/25 03:03:20;;;;;;;6.10;3.58;;;11.90;99.90;;;;;;5049553;28;20033;-73
2022/07/25 03:05:46;;;;;;;3.42;3.13;;;11.90;99.90;;;;;;5050692;28;20032;-71
2022/07/25 03:08:11;;;;;;;3.17;2.95;;;11.90;99.90;;;;;;5050056;28;20028;-71
2022/07/25 03:10:37;;;;;;;3.67;2.80;;;11.90;99.90;;;;;;5050862;28;20029;-72
2022/07/25 03:13:03;;;;;;;5.85;3.38;;;11.90;99.90;;;;;;5050574;28;20053;-77
2022/07/25 03:15:28;;;;;;;4.82;3.33;;;11.90;99.90;;;;;;5050615;28;20474;-72
2022/07/25 03:17:54;;;;;;;3.63;3.33;;;11.90;99.90;;;;;;5049186;28;20120;-71
2022/07/25 03:20:20;;;;;;;5.40;3.38;;;11.90;99.90;;;;;;5050503;28;20045;-71
2022/07/25 03:22:45;;;;;;;7.18;3.92;;;11.90;99.90;;;;;;5050391;28;20060;-77
2022/07/25 03:25:11;;;;;;;17.08;5.95;;;11.90;99.90;;;;;;5049430;28;20027;-71
2022/07/25 03:27:37;;;;;;;11.27;4.18;;;11.90;99.90;;;;;;5050266;28;20543;-71
2022/07/25 03:30:03;;;;;;;7.35;4.03;;;12.00;99.90;;;;;;5050413;28;20021;-77
2022/07/25 03:32:29;;;;;;;3.72;3.38;;;12.00;99.90;;;;;;5050297;28;20053;-77
2022/07/25 03:34:55;;;;;;;5.93;3.20;;;12.00;99.90;;;;;;5048941;28;20478;-77
2022/07/25 03:37:20;;;;;;;5.53;3.05;;;12.00;99.90;;;;;;5049103;28;20089;-77
2022/07/25 03:39:46;;;;;;;5.63;3.72;;;12.10;99.90;;;;;;5050255;28;20017;-72
2022/07/25 03:42:12;;;;;;;6.50;3.85;;;12.20;99.90;;;;;;5050265;28;20021;-77
2022/07/25 03:44:38;;;;;;;4.38;3.28;;;12.40;99.90;;;;;;5048968;28;20112;-77
2022/07/25 03:47:04;;;;;;;5.65;3.17;;;12.60;99.90;;;;;;5050025;28;20110;-77
2022/07/25 03:49:30;;;;;;;4.80;2.90;;;12.80;99.90;;;;;;5048766;28;20017;-72
2022/07/25 03:51:55;;;;;;;4.15;2.65;;;13.00;99.90;;;;;;5050247;28;20029;-71
2022/07/25 03:54:21;;;;;;;3.55;2.60;;;13.20;99.90;;;;;;5049773;28;20066;-72
2022/07/25 03:56:49;;;;;;;2.88;2.60;;;13.40;99.90;;;;;;5050136;28;20470;-71
2022/07/25 03:59:17;;;;;;;5.18;3.53;;;13.60;99.90;;;;;;5049924;28;20017;-77
2022/07/25 04:01:45;;;;;;;4.40;3.30;;;13.80;99.90;;;;;;5049968;28;20028;-77
2022/07/25 04:04:10;;;;;;;4.55;3.17;;;13.90;99.90;;;;;;5048774;28;20385;-71
2022/07/25 04:06:37;;;;;;;6.50;3.20;;;14.10;99.90;;;;;;5049860;28;20029;-76
2022/07/25 04:09:03;;;;;;;4.65;2.85;;;14.30;99.90;;;;;;5049949;28;20021;-77
2022/07/25 04:11:29;;;;;;;3.35;3.03;;;14.50;99.90;;;;;;5048613;28;20108;-77
2022/07/25 04:13:56;;;;;;;4.53;2.83;;;14.70;99.90;;;;;;5049918;28;20018;-71
2022/07/25 04:16:22;;;;;;;4.13;2.75;;;14.80;99.90;;;;;;5049757;28;20054;-77
2022/07/25 04:18:48;;;;;;;3.20;2.97;;;14.90;99.90;;;;;;5049848;28;20120;-77
2022/07/25 04:21:14;;;;;;;4.78;3.17;;;15.10;99.90;;;;;;5051946;28;20040;-77
2022/07/25 04:23:40;;;;;;;6.43;2.95;;;15.30;99.90;;;;;;5051927;28;20021;-71
2022/07/25 04:26:05;;;;;;;4.47;3.22;;;15.50;99.90;;;;;;5053288;28;20057;-77
2022/07/25 04:28:31;;;;;;;4.30;2.80;;;15.70;99.90;;;;;;5053102;28;20465;-73
2022/07/25 04:30:57;;;;;;;3.28;2.97;;;15.90;99.90;;;;;;5053087;28;20025;-78
2022/07/25 04:33:23;;;;;;;2.97;2.72;;;16.00;99.90;;;;;;5051965;28;20021;-77
2022/07/25 04:35:49;;;;;;;4.65;3.50;;;16.20;99.90;;;;;;5053043;28;20032;-78
2022/07/25 04:38:15;;;;;;;3.17;2.80;;;16.40;99.90;;;;;;5052937;28;20018;-73
2022/07/25 04:40:41;;;;;;;7.28;2.95;;;16.60;99.90;;;;;;5051765;28;20367;-72
2022/07/25 04:43:07;;;;;;;3.35;2.63;;;16.70;99.90;;;;;;5051740;28;20032;-72
2022/07/25 04:45:33;;;;;;;4.82;3.35;;;17.00;99.90;;;;;;5053006;28;20057;-77
2022/07/25 04:48:00;;;;;;;3.60;3.10;;;17.10;99.90;;;;;;5052969;28;20073;-78
2022/07/25 04:50:26;;;;;;;3.65;3.03;;;17.30;99.90;;;;;;5052730;28;20130;-73
2022/07/25 04:52:52;;;;;;;5.72;4.47;;;17.50;99.90;;;;;;5052717;28;20032;-72
2022/07/25 04:55:18;;;;;;;6.95;3.58;;;17.60;99.00;;;;;;5052621;28;20033;-77
2022/07/25 04:57:43;;;;;;;3.45;3.15;;;17.80;99.70;;;;;;5051501;28;20070;-77
2022/07/25 05:00:10;;;;;;;3.72;3.35;;;18.00;99.10;;;;;;5052689;28;20024;-73
2022/07/25 05:02:36;;;;;;;4.20;3.75;;;18.20;98.70;;;;;;5051374;28;20033;-78
2022/07/25 05:05:03;;;;;;;6.25;3.85;;;18.20;95.50;;;;;;5052486;28;20025;-73
2022/07/25 05:07:29;;;;;;;4.45;2.97;;;18.40;95.00;;;;;;5052569;28;20033;-78
2022/07/25 05:09:54;;;;;;;5.07;3.67;;;18.50;91.60;;;;;;5051251;28;20028;-73
2022/07/25 05:12:20;;;;;;;4.68;3.42;;;18.50;90.50;;;;;;5053517;27;20104;-73
2022/07/25 05:14:46;;;;;;;6.60;3.80;;;18.50;91.20;;;;;;5052267;28;20474;-74
2022/07/25 05:17:12;;;;;;;7.53;3.45;;;18.60;90.90;;;;;;5052184;27;20027;-77
2022/07/25 05:19:37;;;;;;;3.25;2.90;;;18.70;89.50;;;;;;5050848;27;20025;-78
2022/07/25 05:22:04;;;;;;;4.50;2.90;;;18.70;86.60;;;;;;5052128;28;20056;-78
2022/07/25 05:24:34;;;;;;;5.40;3.25;;;18.80;84.50;;;;;;5050859;28;20055;-77
2022/07/25 05:26:59;;;;;;;2.90;2.70;;;18.90;86.20;;;;;;5052174;28;20090;-72
2022/07/25 05:29:26;;;;;;;3.08;2.78;;;19.00;83.60;;;;;;5081123;27;20025;-77
2022/07/25 05:31:51;;;;;;;3.45;2.88;;;19.00;84.10;;;;;;5087821;27;20024;-77
2022/07/25 05:34:17;;;;;;;3.55;2.85;;;19.10;83.90;;;;;;5100904;27;20022;-73
2022/07/25 05:36:43;;;;;;;4.22;3.13;;;19.20;82.50;;;;;;5105126;27;20026;-72
2022/07/25 05:39:09;;;;;;;3.90;3.10;;;19.30;81.30;;;;;;5154631;27;20019;-73
2022/07/25 05:41:34;;;;;;;3.22;2.92;;;19.30;80.60;;;;;;5155726;27;20105;-73
2022/07/25 05:44:00;;;;;;;4.90;3.15;;;19.40;81.00;;;;;;5156948;27;20464;-72
2022/07/25 05:46:26;;;;;;;3.83;3.00;;;19.50;78.60;;;;;;5156750;27;20042;-77
2022/07/25 05:48:51;;;;;;;3.30;3.03;;;19.50;78.30;;;;;;5053846;27;20022;-78
2022/07/25 05:51:17;;;;;;;10.05;2.88;;;19.70;79.30;;;;;;5052211;27;20037;-72
2022/07/25 05:53:43;;;;;;;3.47;3.17;;;19.80;78.50;;;;;;5051762;27;20044;-74
2022/07/25 05:56:09;;;;;;;2.78;2.58;;;19.90;79.00;;;;;;5098793;27;20406;-72
2022/07/25 05:58:36;;;;;;;2.92;2.47;;;20.00;77.00;;;;;;5156847;27;20026;-73
2022/07/25 06:01:01;;;;;;;3.13;2.72;;;20.10;75.70;;;;;;5112022;27;20474;-77
2022/07/25 06:03:27;;;;;;;2.80;2.50;;;20.30;74.90;;;;;;5072420;27;20076;-74
2022/07/25 06:05:55;;;;;;;3.28;2.58;;;20.50;76.60;;;;;;5051693;28;20085;-72
2022/07/25 06:08:20;;;;;;;3.55;2.92;;;20.60;75.10;;;;;;5051511;28;20074;-73
2022/07/25 06:10:46;;;;;;;3.50;3.03;;;20.70;72.20;;;;;;5050182;28;20021;-72
2022/07/25 06:13:12;;;;;;;3.78;2.45;;;20.80;70.20;;;;;;5077449;27;20031;-73
2022/07/25 06:15:37;;;;;;;3.90;2.67;;;20.90;72.30;;;;;;5124577;27;20117;-71
2022/07/25 06:18:03;;;;;;;2.95;2.72;;;21.00;72.60;;;;;;5156314;27;20487;-69
2022/07/25 06:20:29;;;;;;;2.83;2.30;;;21.20;72.60;;;;;;5084943;27;20419;-71
2022/07/25 06:22:54;;;;;;;3.03;2.40;;;21.30;70.20;;;;;;5050148;28;20565;-74
2022/07/25 06:25:20;;;;;;;5.28;2.50;;;21.40;68.70;;;;;;5111800;27;20395;-74
2022/07/25 06:27:46;;;;;;;2.58;2.38;;;21.60;67.90;;;;;;5156104;27;20392;-75
2022/07/25 06:30:12;;;;;;;2.50;2.30;;;21.70;66.40;;;;;;5156172;27;20019;-75
2022/07/25 06:32:38;;;;;;;3.97;2.50;;;21.80;66.60;;;;;;5141726;27;20022;-69
2022/07/25 06:35:04;;;;;;;3.33;2.97;;;21.90;64.90;;;;;;5099238;27;20429;-71
2022/07/25 06:37:30;;;;;;;2.85;2.00;;;22.00;64.10;;;;;;5117127;27;20460;-69
2022/07/25 06:39:55;;;;;;;3.58;2.22;;;22.20;64.50;;;;;;5109383;27;20032;-76
2022/07/25 06:42:21;;;;;;;5.88;2.42;;;22.40;63.50;;;;;;5124523;27;20025;-77
2022/07/25 06:44:47;;;;;;;5.82;4.97;;;22.40;62.10;;;;;;5097821;27;20508;-78
2022/07/25 06:47:13;;;;;;;2.97;2.67;;;22.60;61.20;;;;;;5101658;27;20077;-77
2022/07/25 06:49:43;;;;;;;5.72;3.28;;;22.70;60.30;;;;;;5104271;27;20482;-77
2022/07/25 06:52:08;;;;;;;5.55;3.78;;;22.80;59.90;;;;;;5095221;27;20025;-78
2022/07/25 06:54:34;;;;;;;5.57;4.57;;;22.90;60.10;;;;;;5083428;27;20109;-71
2022/07/25 06:57:00;;;;;;;3.42;1.90;;;23.00;60.10;;;;;;5040998;28;20394;-78
2022/07/25 06:59:26;;;;;;;10.13;2.30;;;23.10;58.80;;;;;;5030552;28;20033;-77
2022/07/25 07:01:51;;;;;;;3.28;1.80;;;23.20;58.40;;;;;;5028791;28;20100;-77
2022/07/25 07:04:17;;;;;;;2.15;1.85;;;23.30;55.90;;;;;;5030485;28;20114;-71
2022/07/25 07:06:43;;;;;;;2.33;1.85;;;23.40;55.70;;;;;;5029371;28;20032;-77
2022/07/25 07:09:09;;;;;;;3.17;2.00;;;23.50;55.80;;;;;;5029771;28;20066;-72
2022/07/25 07:11:35;;;;;;;5.50;2.22;;;23.50;55.10;;;;;;5029893;28;20109;-70
2022/07/25 07:14:02;;;;;;;4.25;2.53;;;23.60;54.50;;;;;;5030621;28;20490;-71
2022/07/25 07:16:29;;;;;;;3.92;1.83;;;23.70;53.70;;;;;;5028671;28;20021;-78
2022/07/25 07:18:55;;;;;;;4.47;1.90;;;23.80;52.20;;;;;;5037777;27;20023;-71
2022/07/25 07:21:21;;;;;;;5.22;2.28;;;23.90;51.20;;;;;;5043600;27;20057;-78
2022/07/25 07:23:47;;;;;;;2.85;1.63;;;24.00;50.40;;;;;;5045956;28;20108;-78
2022/07/25 07:26:12;;;;;;;4.82;2.03;;;24.10;50.40;;;;;;5046519;28;20033;-77
2022/07/25 07:28:38;;;;;;;1.85;1.75;;;24.10;49.00;;;;;;5047315;28;20028;-77
2022/07/25 07:31:05;;;;;;;2.20;1.52;;;24.20;48.80;;;;;;5047617;28;20482;-78
2022/07/25 07:33:32;;;;;;;2.60;2.05;;;24.30;48.10;;;;;;5054126;28;20017;-77
2022/07/25 07:35:58;;;;;;;2.50;1.73;;;24.30;49.00;;;;;;5049649;28;20094;-77
2022/07/25 07:38:24;;;;;;;3.10;1.80;;;24.60;49.60;;;;;;5118123;27;20039;-78
2022/07/25 07:40:51;;;;;;;4.50;1.98;;;24.60;48.70;;;;;;5049550;28;20029;-78
2022/07/25 07:43:17;;;;;;;2.25;2.05;;;24.70;49.40;;;;;;5049074;28;20048;-77
2022/07/25 07:45:43;;;;;;;2.47;1.75;;;24.70;49.60;;;;;;5050023;28;20397;-77
2022/07/25 07:48:09;;;;;;;3.45;1.92;;;24.90;49.70;;;;;;5048607;28;20128;-78
2022/07/25 07:50:35;;;;;;;2.47;1.70;;;25.00;50.90;;;;;;5049344;28;20598;-77
2022/07/25 07:53:01;;;;;;;3.20;1.95;;;25.00;50.50;;;;;;5046045;27;20494;-77
2022/07/25 07:55:47;;;;;;;3.30;2.35;;;25.00;49.70;;;;;;5054588;27;20022;-77
2022/07/25 07:58:15;;;;;;;2.25;1.88;;;25.00;50.40;;;;;;5079636;27;20015;-77
2022/07/25 08:00:43;;;;;;;4.18;2.05;;;25.00;49.80;;;;;;5124267;27;20554;-77
2022/07/25 08:03:09;;;;;;;2.45;2.25;;;25.00;49.50;;;;;;5118544;27;20068;-77
2022/07/25 08:05:40;;;;;;;1.88;1.67;;;25.10;50.20;;;;;;5153890;27;20018;-78
2022/07/25 08:08:08;;;;;;;2.97;1.88;;;25.20;49.50;;;;;;5071908;27;20308;-77
2022/07/25 08:10:36;;;;;;;3.17;2.30;;;25.30;48.40;;;;;;5137460;27;20549;-77
2022/07/25 08:13:12;;;;;;;3.05;1.67;;;25.40;48.40;;;;;;5153333;27;20462;-78
2022/07/25 08:15:37;;;;;;;2.92;2.00;;;25.40;48.30;;;;;;5070852;27;20351;-77
2022/07/25 08:18:03;;;;;;;4.72;2.30;;;25.70;48.60;;;;;;5047035;28;20105;-77
2022/07/25 08:20:29;;;;;;;2.97;1.58;;;25.80;48.10;;;;;;5095429;27;20028;-78
2022/07/25 08:22:55;;;;;;;1.85;1.60;;;25.80;47.00;;;;;;5090961;27;20053;-78
2022/07/25 08:25:21;;;;;;;3.70;1.73;;;26.00;47.80;;;;;;5100388;27;21152;-78
2022/07/25 08:27:48;;;;;;;3.63;1.80;;;25.90;46.70;;;;;;5126920;27;20049;-77
2022/07/25 08:30:15;;;;;;;1.58;1.48;;;26.00;45.80;;;;;;5061978;27;20569;-77
2022/07/25 08:32:52;;;;;;;1.75;1.65;;;25.90;45.50;;;;;;5067969;27;20099;-78
2022/07/25 08:35:20;;;;;;;3.88;1.48;;;26.20;45.70;;;;;;5111893;28;20027;-78
2022/07/25 08:37:46;;;;;;;4.13;1.88;;;26.40;46.20;;;;;;5072637;27;20033;-78
2022/07/25 08:40:14;;;;;;;2.40;1.67;;;26.60;46.00;;;;;;5079046;27;20052;-78
2022/07/25 08:42:40;;;;;;;4.07;1.70;;;26.50;44.90;;;;;;5057010;27;20037;-77
2022/07/25 08:45:08;;;;;;;4.90;1.98;;;26.60;44.70;;;;;;5100679;28;20025;-77
2022/07/25 08:47:35;;;;;;;3.00;1.63;;;26.70;44.60;;;;;;5055647;27;20057;-77
2022/07/25 08:50:07;;;;;;;1.70;1.60;;;26.80;44.50;;;;;;5066219;27;20023;-78
2022/07/25 08:52:34;;;;;;;2.28;1.50;;;26.90;43.50;;;;;;5049862;27;20041;-78
2022/07/25 08:55:02;;;;;;;1.70;1.60;;;27.00;44.10;;;;;;5060690;27;20022;-70
2022/07/25 08:57:28;;;;;;;2.80;1.60;;;26.80;43.10;;;;;;5068435;27;20523;-71
2022/07/25 08:59:59;;;;;;;3.10;1.80;;;26.70;42.30;;;;;;5063484;27;20023;-71
2022/07/25 09:02:27;;;;;;;1.85;1.63;;;26.60;42.00;;;;;;5047261;27;20112;-77
2022/07/25 09:04:53;;;;;;;3.40;1.60;;;26.70;42.50;;;;;;5087738;28;20024;-77
2022/07/25 09:07:40;;;;;;;1.23;1.23;;;26.80;42.90;;;;;;5050856;28;20037;-76
2022/07/25 09:10:14;;;;;;;3.33;1.60;;;26.90;43.20;;;;;;5052217;28;20096;-71
2022/07/25 09:12:41;;;;;;;1.80;1.70;;;26.90;43.50;;;;;;5051725;28;20096;-76
2022/07/25 09:15:07;;;;;;;2.22;2.00;;;27.10;43.90;;;;;;5048528;28;20028;-76
2022/07/25 09:17:35;;;;;;;2.80;1.60;;;27.30;44.10;;;;;;5050387;27;20108;-71
2022/07/25 09:20:03;;;;;;;1.67;1.42;;;27.30;42.80;;;;;;5049982;28;20023;-71
2022/07/25 09:22:29;;;;;;;1.70;1.33;;;27.50;43.40;;;;;;5051390;28;20045;-76
2022/07/25 09:24:55;;;;;;;3.83;1.77;;;27.70;44.00;;;;;;5051497;28;20032;-76
2022/07/25 09:27:20;;;;;;;2.67;1.73;;;27.90;43.80;;;;;;5051526;28;20029;-71
2022/07/25 09:29:46;;;;;;;4.25;1.90;;;27.70;42.70;;;;;;5052172;28;20017;-75
2022/07/25 09:32:20;;;;;;;1.65;1.55;;;27.90;41.00;;;;;;5052468;28;20415;-72
2022/07/25 09:34:48;;;;;;;1.52;1.38;;;28.00;41.30;;;;;;5052359;28;20439;-71
2022/07/25 09:37:17;;;;;;;1.40;1.30;;;27.80;39.40;;;;;;5051055;28;20493;-76
2022/07/25 09:39:48;;;;;;;1.80;1.70;;;27.70;40.10;;;;;;5052244;28;20066;-71
2022/07/25 09:42:24;;;;;;;5.30;1.40;;;27.90;39.90;;;;;;5052075;28;20025;-76
2022/07/25 09:45:16;;;;;;;2.20;1.45;;;27.70;39.30;;;;;;5052090;28;20021;-76
2022/07/25 09:47:56;;;;;;;1.20;1.10;;;27.70;40.40;;;;;;5052799;27;20065;-71
2022/07/25 09:50:23;;;;;;;1.52;1.35;;;27.70;39.60;;;;;;5052109;28;20416;-71
2022/07/25 09:52:51;;;;;;;1.98;1.60;;;27.90;39.60;;;;;;5052009;28;20025;-76
2022/07/25 09:55:18;;;;;;;2.22;1.50;;;27.90;39.70;;;;;;5050575;28;20390;-76
2022/07/25 09:57:43;;;;;;;1.65;1.55;;;27.70;38.90;;;;;;5050770;28;20048;-76
2022/07/25 10:00:11;;;;;;;1.60;1.38;;;27.80;38.90;;;;;;5051994;28;20056;-76
2022/07/25 10:02:48;;;;;;;3.08;1.45;;;27.90;39.00;;;;;;5051960;28;20031;-76
2022/07/25 10:05:41;;;;;;;1.50;1.33;;;27.70;39.50;;;;;;5051816;28;20092;-76
2022/07/25 10:08:07;;;;;;;2.03;1.48;;;27.70;39.90;;;;;;5050536;28;20478;-70
2022/07/25 10:10:40;;;;;;;2.88;1.60;;;27.90;41.00;;;;;;5050596;28;20027;-71
2022/07/25 10:13:05;;;;;;;2.47;1.20;;;28.00;40.20;;;;;;5051714;28;20032;-71
2022/07/25 10:15:50;;;;;;;1.40;1.30;;;28.20;39.80;;;;;;5050307;28;20398;-76
2022/07/25 10:18:25;;;;;;;2.38;1.40;;;28.20;39.80;;;;;;5051808;28;20024;-76
2022/07/25 10:20:53;;;;;;;2.78;1.63;;;28.30;40.00;;;;;;5051897;28;20021;-76
2022/07/25 10:23:24;;;;;;;2.28;1.30;;;28.50;40.20;;;;;;5051710;28;20041;-71
2022/07/25 10:26:19;;;;;;;2.08;1.67;;;28.70;40.40;;;;;;5051475;28;20466;-71
2022/07/25 10:28:48;;;;;;;1.77;1.40;;;28.70;38.90;;;;;;5042650;28;20040;-76
2022/07/25 10:31:35;;;;;;;1.38;1.30;;;28.60;38.80;;;;;;5050255;28;20021;-71
2022/07/25 10:34:14;;;;;;;1.55;1.38;;;28.40;38.90;;;;;;5051367;28;20104;-71
2022/07/25 10:36:54;;;;;;;5.40;1.50;;;28.50;38.50;;;;;;5050213;28;20027;-70
2022/07/25 10:39:21;;;;;;;2.58;1.83;;;28.60;39.20;;;;;;5050072;28;20024;-71
2022/07/25 10:42:14;;;;;;;2.80;1.65;;;28.60;39.60;;;;;;5051399;28;20386;-71
2022/07/25 10:44:47;;;;;;;2.78;1.63;;;28.70;40.20;;;;;;5049399;28;20037;-76
2022/07/25 10:47:15;;;;;;;6.47;1.45;;;28.80;39.60;;;;;;5050965;28;20044;-71
2022/07/25 10:49:44;;;;;;;2.03;1.50;;;28.90;39.30;;;;;;5051159;28;20017;-76
2022/07/25 10:52:16;;;;;;;2.38;1.50;;;29.00;39.80;;;;;;5051221;28;20470;-76
2022/07/25 10:54:55;;;;;;;4.70;1.80;;;29.10;40.20;;;;;;5051086;28;20033;-71
2022/07/25 10:57:21;;;;;;;1.85;1.67;;;28.90;38.70;;;;;;5050728;28;20017;-70
2022/07/25 10:59:47;;;;;;;2.70;1.92;;;29.00;39.60;;;;;;5082750;27;20098;-76
2022/07/25 11:02:15;;;;;;;1.75;1.65;;;28.90;38.30;;;;;;5155842;27;20054;-75
2022/07/25 11:04:45;;;;;;;3.38;3.08;;;28.80;38.40;;;;;;5128819;27;20025;-70
2022/07/25 11:07:18;;;;;;;1.83;1.67;;;28.70;39.10;;;;;;5070207;27;20133;-68
2022/07/25 11:09:54;;;;;;;1.88;1.70;;;29.10;41.30;;;;;;5066653;27;20045;-68
2022/07/25 11:12:20;;;;;;;2.20;1.52;;;29.20;40.20;;;;;;5061327;27;20031;-68
2022/07/25 11:14:46;;;;;;;2.00;1.90;;;29.20;39.90;;;;;;5069818;27;20100;-68
2022/07/25 11:17:13;;;;;;;1.77;1.50;;;29.10;39.40;;;;;;5085550;27;20017;-74
2022/07/25 11:19:39;;;;;;;1.60;1.50;;;28.90;38.50;;;;;;5102088;27;20050;-74
2022/07/25 11:22:05;;;;;;;1.73;1.40;;;28.80;38.50;;;;;;5047643;28;20045;-67
2022/07/25 11:24:39;;;;;;;2.10;1.90;;;28.70;38.80;;;;;;5048017;28;20045;-74
2022/07/25 11:27:06;;;;;;;1.27;1.27;;;28.90;38.40;;;;;;5050319;28;20081;-74
2022/07/25 11:29:33;;;;;;;2.78;1.35;;;28.90;38.60;;;;;;5048836;28;20429;-67
2022/07/25 11:32:05;;;;;;;2.00;1.55;;;29.10;39.00;;;;;;5050640;28;20033;-73
2022/07/25 11:34:34;;;;;;;6.35;1.75;;;29.30;39.00;;;;;;5050423;28;20096;-73
2022/07/25 11:37:03;;;;;;;1.98;1.52;;;29.40;39.20;;;;;;5049410;28;20029;-67
2022/07/25 11:39:32;;;;;;;1.90;1.80;;;29.50;38.20;;;;;;5049025;28;20119;-74
2022/07/25 11:42:05;;;;;;;3.65;1.70;;;29.50;38.10;;;;;;5050330;28;20021;-74
2022/07/25 11:44:36;;;;;;;2.88;1.30;;;29.50;37.40;;;;;;5049182;28;20028;-73
2022/07/25 11:47:06;;;;;;;3.05;1.45;;;29.50;37.00;;;;;;5048772;28;20070;-73
2022/07/25 11:49:44;;;;;;;2.83;1.67;;;29.60;37.80;;;;;;5049218;28;20108;-74
2022/07/25 11:52:29;;;;;;;3.70;2.72;;;29.50;37.70;;;;;;5050212;28;20085;-74
2022/07/25 11:55:03;;;;;;;3.38;2.10;;;29.20;37.40;;;;;;5112721;27;20361;-68
2022/07/25 11:57:35;;;;;;;1.80;1.60;;;29.10;37.30;;;;;;5153739;27;20030;-67
2022/07/25 12:00:07;;;;;;;1.95;1.83;;;29.30;37.20;;;;;;5155112;27;20023;-73
2022/07/25 12:02:36;;;;;;;1.90;1.60;;;29.20;37.50;;;;;;5154971;27;20025;-73
2022/07/25 12:05:10;;;;;;;1.73;1.30;;;29.30;37.20;;;;;;5154854;27;20079;-67
2022/07/25 12:07:46;;;;;;;5.30;1.30;;;29.40;37.50;;;;;;5154795;27;20039;-74
2022/07/25 12:10:20;;;;;;;2.80;1.80;;;29.30;37.30;;;;;;5155047;27;20030;-67
2022/07/25 12:12:50;;;;;;;3.20;1.10;;;29.40;37.80;;;;;;5154977;27;20019;-74
2022/07/25 12:15:22;;;;;;;2.40;1.20;;;29.50;38.20;;;;;;5154806;27;20558;-67
2022/07/25 12:17:50;;;;;;;1.17;1.10;;;29.70;37.60;;;;;;5154938;27;20019;-73
2022/07/25 12:20:21;;;;;;;2.33;2.13;;;29.80;36.90;;;;;;5153556;27;20014;-73
2022/07/25 12:22:49;;;;;;;3.63;1.40;;;30.00;37.10;;;;;;5154746;27;20099;-73
2022/07/25 12:25:15;;;;;;;3.08;1.10;;;30.00;36.50;;;;;;5154643;27;20022;-73
2022/07/25 12:27:41;;;;;;;1.50;1.40;;;30.20;36.70;;;;;;5153304;27;20091;-73
2022/07/25 12:30:08;;;;;;;2.47;1.55;;;30.20;37.10;;;;;;5154862;27;20023;-68
2022/07/25 12:32:35;;;;;;;1.13;1.02;;;30.20;36.00;;;;;;5154649;27;20763;-74
2022/07/25 12:35:01;;;;;;;1.20;1.10;;;30.30;35.80;;;;;;5153033;27;20023;-67
2022/07/25 12:37:26;;;;;;;2.67;1.25;;;30.10;35.20;;;;;;5136411;27;20026;-64
2022/07/25 12:39:52;;;;;;;5.85;1.90;;;29.90;34.90;;;;;;5097780;27;20027;-74
2022/07/25 12:42:18;;;;;;;1.77;1.55;;;29.90;34.90;;;;;;5077008;27;20121;-67
2022/07/25 12:44:44;;;;;;;2.17;1.10;;;29.90;34.80;;;;;;5062971;27;20090;-68
2022/07/25 12:47:10;;;;;;;3.70;1.50;;;29.80;35.10;;;;;;5069414;27;20564;-67